Time,TemperatureF,DewpointF,PressureIn,WindDirection,WindDirectionDegrees,WindSpeedMPH,WindSpeedGustMPH,Humidity,HourlyPrecipIn,Conditions,Clouds,dailyrainin,SoftwareType,DateUTC
2013-01-29 00:03:00,20.8,14.7,29.97,West,260,0.0,1.0,77,0.00,,,0.00,Wunderground v.1.13,2013-01-29 05:03:00,
2013-01-29 00:12:00,20.8,14.4,29.97,West,260,1.0,2.0,76,0.00,,,0.00,Wunderground v.1.13,2013-01-29 05:12:00,
2013-01-29 00:17:00,20.8,14.4,29.97,West,260,1.0,1.0,76,0.00,,,0.00,Wunderground v.1.13,2013-01-29 05:17:00,
2013-01-29 00:22:00,20.8,14.4,29.97,West,260,1.0,1.0,76,0.00,,,0.00,Wunderground v.1.13,2013-01-29 05:22:00,
2013-01-29 00:27:00,20.8,14.4,29.97,West,260,0.0,2.0,76,0.00,,,0.00,Wunderground v.1.13,2013-01-29 05:27:00,
2013-01-29 00:32:00,20.8,14.7,29.97,West,260,0.0,1.0,77,0.00,,,0.00,Wunderground v.1.13,2013-01-29 05:32:00,
2013-01-29 00:37:00,20.8,14.7,29.97,West,260,1.0,1.0,77,0.00,,,0.00,Wunderground v.1.13,2013-01-29 05:37:00,
2013-01-29 00:42:00,21.0,15.2,29.97,West,260,0.0,0.0,78,0.00,,,0.00,Wunderground v.1.13,2013-01-29 05:42:00,
2013-01-29 00:47:00,21.0,15.2,29.97,West,260,0.0,0.0,78,0.00,,,0.00,Wunderground v.1.13,2013-01-29 05:47:00,
2013-01-29 00:52:00,21.0,14.9,29.97,West,260,0.0,0.0,77,0.00,,,0.00,Wunderground v.1.13,2013-01-29 05:52:00,
2013-01-29 00:57:00,21.0,14.9,29.97,West,260,0.0,0.0,77,0.00,,,0.00,Wunderground v.1.13,2013-01-29 05:57:00,
2013-01-29 01:03:00,21.0,14.9,29.97,West,260,0.0,0.0,77,0.00,,,0.00,Wunderground v.1.13,2013-01-29 06:03:00,
2013-01-29 01:07:00,21.0,15.2,29.97,West,260,0.0,0.0,78,0.00,,,0.00,Wunderground v.1.13,2013-01-29 06:07:00,
2013-01-29 01:12:00,21.0,15.2,29.97,West,260,0.0,0.0,78,0.00,,,0.00,Wunderground v.1.13,2013-01-29 06:12:00,
2013-01-29 01:17:00,21.1,15.3,29.97,West,260,0.0,0.0,78,0.00,,,0.00,Wunderground v.1.13,2013-01-29 06:17:00,
2013-01-29 01:22:00,21.1,15.0,29.97,West,260,0.0,0.0,77,0.00,,,0.00,Wunderground v.1.13,2013-01-29 06:22:00,
2013-01-29 01:27:00,21.1,15.0,29.97,West,260,0.0,0.0,77,0.00,,,0.00,Wunderground v.1.13,2013-01-29 06:27:00,
2013-01-29 01:32:00,21.1,15.3,29.97,West,260,0.0,0.0,78,0.00,,,0.00,Wunderground v.1.13,2013-01-29 06:32:00,
2013-01-29 01:37:00,21.1,15.3,29.97,West,260,0.0,0.0,78,0.00,,,0.00,Wunderground v.1.13,2013-01-29 06:37:00,
2013-01-29 01:42:00,21.1,15.3,29.97,West,260,0.0,0.0,78,0.00,,,0.00,Wunderground v.1.13,2013-01-29 06:42:00,
2013-01-29 01:47:00,21.1,15.3,29.97,West,260,1.0,1.0,78,0.00,,,0.00,Wunderground v.1.13,2013-01-29 06:47:00,
2013-01-29 01:52:00,21.1,15.3,29.98,West,260,1.0,1.0,78,0.00,,,0.00,Wunderground v.1.13,2013-01-29 06:52:00,
2013-01-29 01:57:00,21.1,15.3,29.98,West,260,0.0,0.0,78,0.00,,,0.00,Wunderground v.1.13,2013-01-29 06:57:00,
2013-01-29 02:03:00,21.1,15.3,29.98,WSW,258,0.0,1.0,78,0.00,,,0.00,Wunderground v.1.13,2013-01-29 07:03:00,
2013-01-29 02:07:00,21.1,15.3,29.98,West,260,0.0,0.0,78,0.00,,,0.00,Wunderground v.1.13,2013-01-29 07:07:00,
2013-01-29 02:12:00,21.3,15.5,29.98,West,260,0.0,0.0,78,0.00,,,0.00,Wunderground v.1.13,2013-01-29 07:12:00,
2013-01-29 02:17:00,21.3,15.5,29.98,West,260,0.0,0.0,78,0.00,,,0.00,Wunderground v.1.13,2013-01-29 07:17:00,
2013-01-29 02:22:00,21.3,15.5,29.99,West,260,0.0,0.0,78,0.00,,,0.00,Wunderground v.1.13,2013-01-29 07:22:00,
2013-01-29 02:27:00,21.3,15.5,29.99,West,260,0.0,0.0,78,0.00,,,0.00,Wunderground v.1.13,2013-01-29 07:27:00,
2013-01-29 02:37:00,21.4,15.3,29.99,West,260,0.0,0.0,77,0.00,,,0.00,Wunderground v.1.13,2013-01-29 07:37:00,
2013-01-29 02:42:00,21.4,15.3,29.99,West,260,0.0,0.0,77,0.00,,,0.00,Wunderground v.1.13,2013-01-29 07:42:00,
2013-01-29 02:52:00,21.4,15.3,29.99,West,260,0.0,0.0,77,0.00,,,0.00,Wunderground v.1.13,2013-01-29 07:52:00,
2013-01-29 02:57:00,21.6,15.2,29.99,West,260,0.0,0.0,76,0.00,,,0.00,Wunderground v.1.13,2013-01-29 07:57:00,
2013-01-29 03:03:00,21.6,15.2,29.99,West,260,0.0,0.0,76,0.00,,,0.00,Wunderground v.1.13,2013-01-29 08:03:00,
2013-01-29 03:07:00,21.6,15.2,29.99,West,260,0.0,0.0,76,0.00,,,0.00,Wunderground v.1.13,2013-01-29 08:07:00,
2013-01-29 03:12:00,21.6,14.9,29.99,West,260,0.0,0.0,75,0.00,,,0.00,Wunderground v.1.13,2013-01-29 08:12:00,
2013-01-29 03:17:00,21.6,14.9,29.99,West,260,0.0,0.0,75,0.00,,,0.00,Wunderground v.1.13,2013-01-29 08:17:00,
2013-01-29 03:22:00,21.6,14.6,29.99,West,260,0.0,0.0,74,0.00,,,0.00,Wunderground v.1.13,2013-01-29 08:22:00,
2013-01-29 03:27:00,21.6,14.6,29.99,West,260,0.0,0.0,74,0.00,,,0.00,Wunderground v.1.13,2013-01-29 08:27:00,
2013-01-29 03:32:00,21.6,14.9,29.99,WSW,258,0.0,0.0,75,0.00,,,0.00,Wunderground v.1.13,2013-01-29 08:32:00,
2013-01-29 03:37:00,21.6,15.2,30.00,West,260,0.0,0.0,76,0.00,,,0.00,Wunderground v.1.13,2013-01-29 08:37:00,
2013-01-29 03:42:00,21.8,15.4,30.00,West,260,0.0,0.0,76,0.00,,,0.00,Wunderground v.1.13,2013-01-29 08:42:00,
2013-01-29 03:47:00,21.8,15.4,30.00,West,260,0.0,0.0,76,0.00,,,0.00,Wunderground v.1.13,2013-01-29 08:47:00,
2013-01-29 03:52:00,21.8,15.4,30.00,West,260,0.0,0.0,76,0.00,,,0.00,Wunderground v.1.13,2013-01-29 08:52:00,
2013-01-29 03:57:00,21.8,15.4,30.00,West,260,0.0,0.0,76,0.00,,,0.00,Wunderground v.1.13,2013-01-29 08:57:00,
2013-01-29 04:02:00,21.8,15.4,30.00,West,260,0.0,0.0,76,0.00,,,0.00,Wunderground v.1.13,2013-01-29 09:02:00,
2013-01-29 04:07:00,21.8,15.4,30.00,West,260,0.0,0.0,76,0.00,,,0.00,Wunderground v.1.13,2013-01-29 09:07:00,
2013-01-29 04:12:00,21.8,15.7,30.00,West,260,0.0,0.0,77,0.00,,,0.00,Wunderground v.1.13,2013-01-29 09:12:00,
2013-01-29 04:17:00,21.8,15.4,30.00,West,260,0.0,0.0,76,0.00,,,0.00,Wunderground v.1.13,2013-01-29 09:17:00,
2013-01-29 04:22:00,21.8,15.4,30.00,West,260,0.0,0.0,76,0.00,,,0.00,Wunderground v.1.13,2013-01-29 09:22:00,
2013-01-29 04:27:00,21.8,15.7,30.00,West,260,0.0,0.0,77,0.00,,,0.00,Wunderground v.1.13,2013-01-29 09:27:00,
2013-01-29 04:32:00,21.8,15.4,30.00,West,260,0.0,0.0,76,0.00,,,0.00,Wunderground v.1.13,2013-01-29 09:32:00,
2013-01-29 04:37:00,21.8,15.4,30.00,West,260,0.0,0.0,76,0.00,,,0.00,Wunderground v.1.13,2013-01-29 09:37:00,
2013-01-29 04:42:00,21.6,15.2,30.00,West,260,0.0,0.0,76,0.00,,,0.00,Wunderground v.1.13,2013-01-29 09:42:00,
2013-01-29 04:52:00,21.4,15.0,30.02,West,260,0.0,0.0,76,0.00,,,0.00,Wunderground v.1.13,2013-01-29 09:52:00,
2013-01-29 04:57:00,21.3,15.2,30.02,West,260,0.0,0.0,77,0.00,,,0.00,Wunderground v.1.13,2013-01-29 09:57:00,
2013-01-29 05:03:00,21.3,15.2,30.02,West,260,0.0,0.0,77,0.00,,,0.00,Wunderground v.1.13,2013-01-29 10:03:00,
2013-01-29 05:07:00,21.3,15.5,30.01,West,260,0.0,0.0,78,0.00,,,0.00,Wunderground v.1.13,2013-01-29 10:07:00,
2013-01-29 05:12:00,21.3,15.5,30.01,West,260,0.0,0.0,78,0.00,,,0.00,Wunderground v.1.13,2013-01-29 10:12:00,
2013-01-29 05:17:00,21.1,15.3,30.01,West,260,0.0,0.0,78,0.00,,,0.00,Wunderground v.1.13,2013-01-29 10:17:00,
2013-01-29 05:22:00,21.1,15.3,30.02,West,260,0.0,0.0,78,0.00,,,0.00,Wunderground v.1.13,2013-01-29 10:22:00,
2013-01-29 05:27:00,21.3,15.5,30.02,West,260,0.0,0.0,78,0.00,,,0.00,Wunderground v.1.13,2013-01-29 10:27:00,
2013-01-29 05:32:00,21.3,15.5,30.02,West,260,0.0,0.0,78,0.00,,,0.00,Wunderground v.1.13,2013-01-29 10:32:00,
2013-01-29 05:37:00,21.1,15.3,30.01,West,260,0.0,0.0,78,0.00,,,0.00,Wunderground v.1.13,2013-01-29 10:37:00,
2013-01-29 05:42:00,21.1,15.3,30.01,West,260,0.0,0.0,78,0.00,,,0.00,Wunderground v.1.13,2013-01-29 10:42:00,
2013-01-29 05:47:00,21.0,15.2,30.01,West,260,0.0,0.0,78,0.00,,,0.00,Wunderground v.1.13,2013-01-29 10:47:00,
2013-01-29 05:52:00,20.8,15.0,30.02,West,260,0.0,0.0,78,0.00,,,0.00,Wunderground v.1.13,2013-01-29 10:52:00,
2013-01-29 05:57:00,20.6,14.5,30.02,West,260,0.0,0.0,77,0.00,,,0.00,Wunderground v.1.13,2013-01-29 10:57:00,
2013-01-29 06:03:00,20.5,14.4,30.02,West,260,0.0,0.0,77,0.00,,,0.00,Wunderground v.1.13,2013-01-29 11:03:00,
2013-01-29 06:07:00,20.2,14.1,30.02,West,260,0.0,0.0,77,0.00,,,0.00,Wunderground v.1.13,2013-01-29 11:07:00,
2013-01-29 06:12:00,19.9,13.9,30.02,West,260,0.0,0.0,77,0.00,,,0.00,Wunderground v.1.13,2013-01-29 11:12:00,
2013-01-29 06:17:00,19.7,13.4,30.02,West,260,0.0,0.0,76,0.00,,,0.00,Wunderground v.1.13,2013-01-29 11:17:00,
2013-01-29 06:22:00,19.4,13.1,30.03,West,260,0.0,0.0,76,0.00,,,0.00,Wunderground v.1.13,2013-01-29 11:22:00,
2013-01-29 06:27:00,19.1,12.5,30.03,West,260,0.0,0.0,75,0.00,,,0.00,Wunderground v.1.13,2013-01-29 11:27:00,
2013-01-29 06:32:00,18.8,12.2,30.03,West,260,0.0,0.0,75,0.00,,,0.00,Wunderground v.1.13,2013-01-29 11:32:00,
2013-01-29 06:37:00,18.4,11.8,30.04,West,260,0.0,0.0,75,0.00,,,0.00,Wunderground v.1.13,2013-01-29 11:37:00,
2013-01-29 06:42:00,18.3,11.4,30.04,West,260,0.0,0.0,74,0.00,,,0.00,Wunderground v.1.13,2013-01-29 11:42:00,
2013-01-29 06:47:00,18.0,11.1,30.04,West,260,0.0,0.0,74,0.00,,,0.00,Wunderground v.1.13,2013-01-29 11:47:00,
2013-01-29 06:52:00,17.7,10.5,30.06,West,260,0.0,0.0,73,0.00,,,0.00,Wunderground v.1.13,2013-01-29 11:52:00,
2013-01-29 06:57:00,17.3,10.4,30.06,West,260,0.0,1.0,74,0.00,,,0.00,Wunderground v.1.13,2013-01-29 11:57:00,
2013-01-29 07:03:00,17.0,9.8,30.06,West,260,0.0,0.0,73,0.00,,,0.00,Wunderground v.1.13,2013-01-29 12:03:00,
2013-01-29 07:07:00,16.9,9.7,30.05,West,260,0.0,1.0,73,0.00,,,0.00,Wunderground v.1.13,2013-01-29 12:07:00,
2013-01-29 07:12:00,16.7,9.8,30.05,West,260,0.0,0.0,74,0.00,,,0.00,Wunderground v.1.13,2013-01-29 12:12:00,
2013-01-29 07:17:00,16.7,9.8,30.05,West,260,1.0,1.0,74,0.00,,,0.00,Wunderground v.1.13,2013-01-29 12:17:00,
2013-01-29 07:22:00,16.5,9.7,30.05,West,260,0.0,0.0,74,0.00,,,0.00,Wunderground v.1.13,2013-01-29 12:22:00,
2013-01-29 07:27:00,16.4,9.6,30.05,West,260,0.0,0.0,74,0.00,,,0.00,Wunderground v.1.13,2013-01-29 12:27:00,
2013-01-29 07:32:00,16.4,9.6,30.05,West,260,0.0,0.0,74,0.00,,,0.00,Wunderground v.1.13,2013-01-29 12:32:00,
2013-01-29 07:37:00,16.4,9.3,30.06,West,260,0.0,0.0,73,0.00,,,0.00,Wunderground v.1.13,2013-01-29 12:37:00,
2013-01-29 07:42:00,16.5,9.0,30.06,West,260,0.0,1.0,72,0.00,,,0.00,Wunderground v.1.13,2013-01-29 12:42:00,
2013-01-29 07:47:00,16.7,9.2,30.06,West,260,0.0,1.0,72,0.00,,,0.00,Wunderground v.1.13,2013-01-29 12:47:00,
2013-01-29 07:52:00,16.9,9.1,30.07,West,260,0.0,0.0,71,0.00,,,0.00,Wunderground v.1.13,2013-01-29 12:52:00,
2013-01-29 07:57:00,17.3,9.8,30.07,West,260,0.0,0.0,72,0.00,,,0.00,Wunderground v.1.13,2013-01-29 12:57:00,
2013-01-29 08:02:00,18.0,10.5,30.07,West,260,0.0,0.0,72,0.00,,,0.00,Wunderground v.1.13,2013-01-29 13:02:00,
2013-01-29 08:12:00,18.8,9.6,30.08,West,260,0.0,0.0,67,0.00,,,0.00,Wunderground v.1.13,2013-01-29 13:12:00,
2013-01-29 08:17:00,19.4,10.6,30.08,West,260,0.0,0.0,68,0.00,,,0.00,Wunderground v.1.13,2013-01-29 13:17:00,
2013-01-29 08:22:00,20.0,10.8,30.08,West,260,0.0,0.0,67,0.00,,,0.00,Wunderground v.1.13,2013-01-29 13:22:00,
2013-01-29 08:27:00,20.6,10.0,30.08,West,260,0.0,0.0,63,0.00,,,0.00,Wunderground v.1.13,2013-01-29 13:27:00,
2013-01-29 08:32:00,21.3,11.0,30.08,West,260,0.0,0.0,64,0.00,,,0.00,Wunderground v.1.13,2013-01-29 13:32:00,
2013-01-29 08:37:00,22.1,11.1,30.09,West,260,0.0,0.0,62,0.00,,,0.00,Wunderground v.1.13,2013-01-29 13:37:00,
2013-01-29 08:42:00,22.5,9.1,30.09,West,260,0.0,0.0,56,0.00,,,0.00,Wunderground v.1.13,2013-01-29 13:42:00,
2013-01-29 08:52:00,23.5,10.9,30.08,West,260,0.0,0.0,58,0.00,,,0.00,Wunderground v.1.13,2013-01-29 13:52:00,
2013-01-29 08:57:00,24.4,10.9,30.08,West,260,0.0,1.0,56,0.00,,,0.00,Wunderground v.1.13,2013-01-29 13:57:00,
2013-01-29 09:02:00,25.0,9.8,30.08,West,260,0.0,1.0,52,0.00,,,0.00,Wunderground v.1.13,2013-01-29 14:02:00,
2013-01-29 09:07:00,25.3,6.9,30.09,West,260,0.0,1.0,45,0.00,,,0.00,Wunderground v.1.13,2013-01-29 14:07:00,
2013-01-29 09:12:00,25.8,7.8,30.09,West,260,0.0,0.0,46,0.00,,,0.00,Wunderground v.1.13,2013-01-29 14:12:00,
2013-01-29 09:22:00,27.6,9.5,30.09,West,260,0.0,0.0,46,0.00,,,0.01,Wunderground v.1.13,2013-01-29 14:22:00,
2013-01-29 09:27:00,28.4,10.2,30.09,West,260,0.0,0.0,46,0.00,,,0.01,Wunderground v.1.13,2013-01-29 14:27:00,
2013-01-29 09:32:00,28.1,5.1,30.09,West,260,0.0,0.0,37,0.00,,,0.01,Wunderground v.1.13,2013-01-29 14:32:00,
2013-01-29 09:37:00,28.1,4.5,30.08,West,260,1.0,1.0,36,0.04,,,0.02,Wunderground v.1.13,2013-01-29 14:37:00,
2013-01-29 09:47:00,28.7,5.7,30.08,West,260,0.0,1.0,37,0.04,,,0.02,Wunderground v.1.13,2013-01-29 14:47:00,
2013-01-29 09:52:00,28.2,0.7,30.08,West,260,1.0,3.0,30,0.04,,,0.03,Wunderground v.1.13,2013-01-29 14:52:00,
2013-01-29 09:57:00,28.2,2.1,30.08,West,260,2.0,2.0,32,0.04,,,0.03,Wunderground v.1.13,2013-01-29 14:57:00,
2013-01-29 10:03:00,28.2,0.7,30.08,West,260,1.0,1.0,30,0.06,,,0.04,Wunderground v.1.13,2013-01-29 15:03:00,
2013-01-29 10:07:00,28.4,-0.6,30.09,West,260,1.0,1.0,28,0.06,,,0.04,Wunderground v.1.13,2013-01-29 15:07:00,
2013-01-29 10:12:00,28.5,-0.5,30.09,West,260,1.0,2.0,28,0.06,,,0.05,Wunderground v.1.13,2013-01-29 15:12:00,
2013-01-29 10:17:00,28.7,-1.1,30.09,West,260,1.0,1.0,27,0.06,,,0.05,Wunderground v.1.13,2013-01-29 15:17:00,
2013-01-29 10:22:00,28.5,-2.1,30.10,NNW,342,1.0,1.0,26,0.06,,,0.05,Wunderground v.1.13,2013-01-29 15:22:00,
2013-01-29 10:27:00,28.5,-0.5,30.10,NNW,342,1.0,1.0,28,0.06,,,0.06,Wunderground v.1.13,2013-01-29 15:27:00,
2013-01-29 10:32:00,28.5,-1.3,30.10,NNW,335,1.0,1.0,27,0.06,,,0.06,Wunderground v.1.13,2013-01-29 15:32:00,
2013-01-29 10:37:00,28.7,-0.4,30.11,NNW,330,1.0,3.0,28,0.04,,,0.06,Wunderground v.1.13,2013-01-29 15:37:00,
2013-01-29 10:42:00,28.7,-0.4,30.11,NNW,330,1.0,2.0,28,0.04,,,0.07,Wunderground v.1.13,2013-01-29 15:42:00,
2013-01-29 10:47:00,28.4,-3.0,30.11,WNW,289,1.0,1.0,25,0.04,,,0.07,Wunderground v.1.13,2013-01-29 15:47:00,
2013-01-29 10:52:00,28.4,-0.6,30.11,WNW,292,2.0,2.0,28,0.04,,,0.07,Wunderground v.1.13,2013-01-29 15:52:00,
2013-01-29 10:57:00,28.5,0.9,30.11,NW,312,2.0,3.0,30,0.00,,,0.08,Wunderground v.1.13,2013-01-29 15:57:00,
2013-01-29 11:03:00,28.5,0.2,30.11,NW,309,2.0,3.0,29,0.00,,,0.08,Wunderground v.1.13,2013-01-29 16:03:00,
2013-01-29 11:07:00,28.5,-1.3,30.11,NW,309,2.0,2.0,27,0.00,,,0.08,Wunderground v.1.13,2013-01-29 16:07:00,
2013-01-29 11:17:00,29.1,-0.8,30.11,NW,309,2.0,2.0,27,0.00,,,0.08,Wunderground v.1.13,2013-01-29 16:17:00,
2013-01-29 11:22:00,29.3,1.6,30.11,NW,306,2.0,4.0,30,0.00,,,0.09,Wunderground v.1.13,2013-01-29 16:22:00,
2013-01-29 11:27:00,29.4,0.3,30.11,NW,326,2.0,2.0,28,0.00,,,0.09,Wunderground v.1.13,2013-01-29 16:27:00,
2013-01-29 11:32:00,29.4,0.3,30.11,NW,320,3.0,5.0,28,0.00,,,0.09,Wunderground v.1.13,2013-01-29 16:32:00,
2013-01-29 11:37:00,29.4,-0.5,30.11,NNW,333,3.0,3.0,27,0.00,,,0.09,Wunderground v.1.13,2013-01-29 16:37:00,
2013-01-29 11:42:00,29.8,0.6,30.11,NNW,333,2.0,2.0,28,0.00,,,0.10,Wunderground v.1.13,2013-01-29 16:42:00,
2013-01-29 11:47:00,29.7,-0.3,30.11,NW,320,3.0,3.0,27,0.00,,,0.10,Wunderground v.1.13,2013-01-29 16:47:00,
2013-01-29 11:57:00,30.1,-1.6,30.09,NNW,332,2.0,5.0,25,0.00,,,0.10,Wunderground v.1.13,2013-01-29 16:57:00,
2013-01-29 12:03:00,30.3,-3.1,30.09,NW,323,2.0,2.0,23,0.00,,,0.10,Wunderground v.1.13,2013-01-29 17:03:00,
2013-01-29 12:12:00,30.7,-2.8,30.09,NNW,336,2.0,2.0,23,0.00,,,0.11,Wunderground v.1.13,2013-01-29 17:12:00,
2013-01-29 12:17:00,30.9,-4.5,30.09,NNW,342,2.0,3.0,21,0.04,,,0.12,Wunderground v.1.13,2013-01-29 17:17:00,
2013-01-29 12:22:00,30.9,-4.5,30.09,NW,316,2.0,2.0,21,0.04,,,0.12,Wunderground v.1.13,2013-01-29 17:22:00,
2013-01-29 12:27:00,30.9,-5.6,30.09,NNW,343,2.0,3.0,20,0.04,,,0.12,Wunderground v.1.13,2013-01-29 17:27:00,
2013-01-29 12:32:00,31.2,-4.3,30.09,North,0,2.0,2.0,21,0.04,,,0.12,Wunderground v.1.13,2013-01-29 17:32:00,
2013-01-29 12:37:00,31.6,-6.0,30.09,North,0,1.0,1.0,19,0.00,,,0.13,Wunderground v.1.13,2013-01-29 17:37:00,
2013-01-29 12:47:00,31.8,-8.2,30.09,North,0,1.0,1.0,17,0.00,,,0.13,Wunderground v.1.13,2013-01-29 17:47:00,
2013-01-29 12:52:00,32.1,-13.3,30.08,East,93,1.0,2.0,13,0.00,,,0.13,Wunderground v.1.13,2013-01-29 17:52:00,
2013-01-29 12:57:00,32.2,-14.8,30.08,East,93,1.0,2.0,12,0.00,,,0.14,Wunderground v.1.13,2013-01-29 17:57:00,
2013-01-29 13:02:00,32.5,-16.3,30.08,East,79,2.0,2.0,11,0.00,,,0.14,Wunderground v.1.13,2013-01-29 18:02:00,
2013-01-29 13:12:00,33.1,-11.0,30.07,East,79,1.0,1.0,14,0.00,,,0.14,Wunderground v.1.13,2013-01-29 18:12:00,
2013-01-29 13:17:00,32.9,-16.0,30.07,WSW,240,1.0,2.0,11,0.00,,,0.15,Wunderground v.1.13,2013-01-29 18:17:00,
2013-01-29 13:22:00,32.8,-12.8,30.06,WSW,253,1.0,2.0,13,0.00,,,0.15,Wunderground v.1.13,2013-01-29 18:22:00,
2013-01-29 13:27:00,32.8,-9.9,30.06,WSW,253,1.0,2.0,15,0.06,,,0.16,Wunderground v.1.13,2013-01-29 18:27:00,
2013-01-29 13:32:00,32.7,-10.0,30.06,West,281,1.0,1.0,15,0.06,,,0.16,Wunderground v.1.13,2013-01-29 18:32:00,
2013-01-29 13:37:00,32.7,-10.0,30.07,West,281,1.0,1.0,15,0.05,,,0.16,Wunderground v.1.13,2013-01-29 18:37:00,
2013-01-29 13:42:00,32.9,-11.2,30.07,West,281,0.0,0.0,14,0.04,,,0.17,Wunderground v.1.13,2013-01-29 18:42:00,
2013-01-29 13:47:00,33.2,-14.0,30.07,West,281,0.0,2.0,12,0.04,,,0.17,Wunderground v.1.13,2013-01-29 18:47:00,
2013-01-29 13:52:00,33.2,-12.4,30.06,SSE,154,1.0,1.0,13,0.04,,,0.17,Wunderground v.1.13,2013-01-29 18:52:00,
2013-01-29 13:57:00,33.2,-14.0,30.06,SSE,154,1.0,1.0,12,0.04,,,0.17,Wunderground v.1.13,2013-01-29 18:57:00,
2013-01-29 14:03:00,33.5,-8.0,30.06,SSE,154,0.0,0.0,16,0.00,,,0.18,Wunderground v.1.13,2013-01-29 19:03:00,
2013-01-29 14:07:00,33.8,-4.2,30.06,SSE,154,0.0,0.0,19,0.00,,,0.18,Wunderground v.1.13,2013-01-29 19:07:00,
2013-01-29 14:12:00,33.2,-9.6,30.06,NW,311,1.0,3.0,15,0.00,,,0.18,Wunderground v.1.13,2013-01-29 19:12:00,
2013-01-29 14:17:00,32.7,-8.7,30.06,West,275,3.0,3.0,16,0.00,,,0.18,Wunderground v.1.13,2013-01-29 19:17:00,
2013-01-29 14:22:00,32.2,-7.8,30.05,WSW,247,3.0,3.0,17,0.00,,,0.18,Wunderground v.1.13,2013-01-29 19:22:00,
2013-01-29 14:27:00,32.1,-6.7,30.05,West,260,3.0,3.0,18,0.00,,,0.18,Wunderground v.1.13,2013-01-29 19:27:00,
2013-01-29 14:32:00,32.4,-4.3,30.05,West,260,1.0,1.0,20,0.00,,,0.18,Wunderground v.1.13,2013-01-29 19:32:00,
2013-01-29 14:42:00,32.8,-2.9,30.06,West,260,0.0,0.0,21,0.00,,,0.19,Wunderground v.1.13,2013-01-29 19:42:00,
2013-01-29 14:47:00,33.1,-3.7,30.06,WSW,258,0.0,0.0,20,0.00,,,0.19,Wunderground v.1.13,2013-01-29 19:47:00,
2013-01-29 14:52:00,33.1,-4.8,30.06,West,260,0.0,0.0,19,0.00,,,0.19,Wunderground v.1.13,2013-01-29 19:52:00,
2013-01-29 14:57:00,33.1,-0.8,30.06,West,260,0.0,0.0,23,0.00,,,0.19,Wunderground v.1.13,2013-01-29 19:57:00,
2013-01-29 15:03:00,32.9,-2.8,30.06,West,260,1.0,1.0,21,0.00,,,0.19,Wunderground v.1.13,2013-01-29 20:03:00,
2013-01-29 15:12:00,32.9,0.0,30.06,West,260,0.0,0.0,24,0.00,,,0.19,Wunderground v.1.13,2013-01-29 20:12:00,
2013-01-29 15:17:00,33.1,1.9,30.06,West,260,0.0,0.0,26,0.00,,,0.19,Wunderground v.1.13,2013-01-29 20:17:00,
2013-01-29 15:22:00,32.9,0.9,30.07,West,260,1.0,1.0,25,0.00,,,0.20,Wunderground v.1.13,2013-01-29 20:22:00,
2013-01-29 15:27:00,32.8,0.8,30.07,West,260,1.0,1.0,25,0.00,,,0.20,Wunderground v.1.13,2013-01-29 20:27:00,
2013-01-29 15:32:00,32.8,3.2,30.07,West,260,0.0,2.0,28,0.00,,,0.20,Wunderground v.1.13,2013-01-29 20:32:00,
2013-01-29 15:37:00,32.7,3.9,30.06,West,260,1.0,1.0,29,0.00,,,0.20,Wunderground v.1.13,2013-01-29 20:37:00,
2013-01-29 15:42:00,32.5,4.4,30.06,WSW,258,1.0,1.0,30,0.00,,,0.20,Wunderground v.1.13,2013-01-29 20:42:00,
2013-01-29 15:47:00,32.5,7.2,30.06,WSW,258,0.0,0.0,34,0.00,,,0.20,Wunderground v.1.13,2013-01-29 20:47:00,
2013-01-29 15:52:00,32.5,7.8,30.06,WSW,258,0.0,0.0,35,0.00,,,0.20,Wunderground v.1.13,2013-01-29 20:52:00,
2013-01-29 16:03:00,32.7,9.3,30.06,WSW,258,0.0,0.0,37,0.00,,,0.20,Wunderground v.1.13,2013-01-29 21:03:00,
2013-01-29 16:07:00,32.8,13.8,30.07,WSW,258,0.0,0.0,45,0.00,,,0.20,Wunderground v.1.13,2013-01-29 21:07:00,
2013-01-29 16:17:00,32.7,15.6,30.07,WSW,258,0.0,0.0,49,0.00,,,0.20,Wunderground v.1.13,2013-01-29 21:17:00,
2013-01-29 16:22:00,32.5,15.4,30.06,WSW,258,0.0,0.0,49,0.00,,,0.20,Wunderground v.1.13,2013-01-29 21:22:00,
2013-01-29 16:27:00,32.4,15.3,30.06,WSW,258,0.0,1.0,49,0.00,,,0.20,Wunderground v.1.13,2013-01-29 21:27:00,
2013-01-29 16:32:00,32.2,15.6,30.06,WSW,258,0.0,0.0,50,0.00,,,0.20,Wunderground v.1.13,2013-01-29 21:32:00,
2013-01-29 16:37:00,32.1,16.0,30.07,WSW,258,0.0,0.0,51,0.00,,,0.20,Wunderground v.1.13,2013-01-29 21:37:00,
2013-01-29 16:42:00,32.1,16.9,30.07,WSW,258,0.0,1.0,53,0.00,,,0.20,Wunderground v.1.13,2013-01-29 21:42:00,
2013-01-29 16:47:00,31.9,18.0,30.07,WSW,258,0.0,0.0,56,0.00,,,0.20,Wunderground v.1.13,2013-01-29 21:47:00,
2013-01-29 16:57:00,31.8,19.9,30.07,WSW,258,0.0,0.0,61,0.00,,,0.20,Wunderground v.1.13,2013-01-29 21:57:00,
2013-01-29 17:02:00,31.6,20.1,30.07,WSW,258,0.0,0.0,62,0.00,,,0.20,Wunderground v.1.13,2013-01-29 22:02:00,
2013-01-29 17:07:00,31.6,20.8,30.07,WSW,258,0.0,0.0,64,0.00,,,0.20,Wunderground v.1.13,2013-01-29 22:07:00,
2013-01-29 17:12:00,31.5,20.7,30.07,WSW,258,0.0,0.0,64,0.00,,,0.20,Wunderground v.1.13,2013-01-29 22:12:00,
2013-01-29 17:17:00,31.5,21.1,30.07,WSW,258,0.0,0.0,65,0.00,,,0.20,Wunderground v.1.13,2013-01-29 22:17:00,
2013-01-29 17:22:00,31.5,21.1,30.08,WSW,258,0.0,0.0,65,0.00,,,0.20,Wunderground v.1.13,2013-01-29 22:22:00,
2013-01-29 17:27:00,31.5,21.4,30.08,WSW,258,0.0,0.0,66,0.00,,,0.20,Wunderground v.1.13,2013-01-29 22:27:00,
2013-01-29 17:32:00,31.5,21.4,30.08,WSW,258,0.0,0.0,66,0.00,,,0.20,Wunderground v.1.13,2013-01-29 22:32:00,
2013-01-29 17:37:00,31.3,21.3,30.08,WSW,258,0.0,1.0,66,0.00,,,0.20,Wunderground v.1.13,2013-01-29 22:37:00,
2013-01-29 17:42:00,31.3,21.6,30.08,West,260,1.0,1.0,67,0.00,,,0.20,Wunderground v.1.13,2013-01-29 22:42:00,
2013-01-29 17:47:00,31.3,21.6,30.08,West,260,1.0,1.0,67,0.00,,,0.20,Wunderground v.1.13,2013-01-29 22:47:00,
2013-01-29 17:52:00,31.5,21.4,30.07,West,281,1.0,1.0,66,0.00,,,0.20,Wunderground v.1.13,2013-01-29 22:52:00,
2013-01-29 17:57:00,31.5,21.4,30.07,WNW,285,1.0,1.0,66,0.00,,,0.20,Wunderground v.1.13,2013-01-29 22:57:00,
2013-01-29 18:02:00,31.5,21.4,30.07,WNW,285,1.0,1.0,66,0.00,,,0.20,Wunderground v.1.13,2013-01-29 23:02:00,
2013-01-29 18:12:00,31.5,21.8,30.08,WNW,285,1.0,1.0,67,0.00,,,0.20,Wunderground v.1.13,2013-01-29 23:12:00,
2013-01-29 18:17:00,31.5,22.1,30.08,WNW,285,1.0,1.0,68,0.00,,,0.20,Wunderground v.1.13,2013-01-29 23:17:00,
2013-01-29 18:22:00,31.5,22.1,30.09,WNW,285,0.0,1.0,68,0.00,,,0.20,Wunderground v.1.13,2013-01-29 23:22:00,
2013-01-29 18:27:00,31.5,22.5,30.09,WNW,285,1.0,2.0,69,0.00,,,0.20,Wunderground v.1.13,2013-01-29 23:27:00,
2013-01-29 18:32:00,31.3,22.0,30.09,WNW,284,1.0,1.0,68,0.00,,,0.20,Wunderground v.1.13,2013-01-29 23:32:00,
2013-01-29 18:37:00,31.3,22.3,30.09,WNW,284,1.0,1.0,69,0.00,,,0.20,Wunderground v.1.13,2013-01-29 23:37:00,
2013-01-29 18:42:00,31.2,22.2,30.09,WNW,284,1.0,2.0,69,0.00,,,0.20,Wunderground v.1.13,2013-01-29 23:42:00,
2013-01-29 18:47:00,31.2,22.5,30.09,WNW,292,1.0,1.0,70,0.00,,,0.20,Wunderground v.1.13,2013-01-29 23:47:00,
2013-01-29 18:52:00,31.2,22.9,30.08,WNW,292,1.0,1.0,71,0.00,,,0.20,Wunderground v.1.13,2013-01-29 23:52:00,
2013-01-29 18:57:00,31.2,23.2,30.08,West,272,2.0,2.0,72,0.00,,,0.20,Wunderground v.1.13,2013-01-29 23:57:00,
2013-01-29 19:02:00,31.2,23.2,30.08,West,272,1.0,1.0,72,0.00,,,0.20,Wunderground v.1.13,2013-01-30 00:02:00,
2013-01-29 19:07:00,31.2,23.5,30.08,NW,309,1.0,2.0,73,0.00,,,0.20,Wunderground v.1.13,2013-01-30 00:07:00,
2013-01-29 19:12:00,31.2,23.5,30.08,NW,309,1.0,1.0,73,0.00,,,0.20,Wunderground v.1.13,2013-01-30 00:12:00,
2013-01-29 19:17:00,31.2,23.5,30.08,NW,309,0.0,0.0,73,0.00,,,0.20,Wunderground v.1.13,2013-01-30 00:17:00,
2013-01-29 19:27:00,31.2,23.5,30.07,NW,309,0.0,0.0,73,0.00,,,0.20,Wunderground v.1.13,2013-01-30 00:27:00,
2013-01-29 19:32:00,31.2,23.9,30.07,West,277,0.0,2.0,74,0.00,,,0.20,Wunderground v.1.13,2013-01-30 00:32:00,
2013-01-29 19:37:00,31.2,23.9,30.09,West,277,1.0,1.0,74,0.00,,,0.20,Wunderground v.1.13,2013-01-30 00:37:00,
2013-01-29 19:47:00,31.2,24.2,30.09,West,277,0.0,0.0,75,0.00,,,0.20,Wunderground v.1.13,2013-01-30 00:47:00,
2013-01-29 19:52:00,31.0,24.0,30.09,West,277,0.0,0.0,75,0.00,,,0.20,Wunderground v.1.13,2013-01-30 00:52:00,
2013-01-29 19:57:00,31.0,24.3,30.09,West,277,0.0,0.0,76,0.00,,,0.20,Wunderground v.1.13,2013-01-30 00:57:00,
2013-01-29 20:03:00,31.0,24.6,30.09,West,277,0.0,0.0,77,0.00,,,0.20,Wunderground v.1.13,2013-01-30 01:03:00,
2013-01-29 20:07:00,31.0,24.6,30.09,West,277,0.0,0.0,77,0.00,,,0.20,Wunderground v.1.13,2013-01-30 01:07:00,
2013-01-29 20:12:00,31.0,24.9,30.09,West,277,0.0,2.0,78,0.00,,,0.20,Wunderground v.1.13,2013-01-30 01:12:00,
2013-01-29 20:17:00,31.0,24.9,30.09,West,277,0.0,0.0,78,0.00,,,0.20,Wunderground v.1.13,2013-01-30 01:17:00,
2013-01-29 20:22:00,31.0,25.2,30.09,West,277,0.0,0.0,79,0.00,,,0.20,Wunderground v.1.13,2013-01-30 01:22:00,
2013-01-29 20:27:00,31.0,25.9,30.09,West,277,0.0,2.0,81,0.00,,,0.20,Wunderground v.1.13,2013-01-30 01:27:00,
2013-01-29 20:32:00,31.0,25.9,30.09,West,277,1.0,1.0,81,0.00,,,0.20,Wunderground v.1.13,2013-01-30 01:32:00,
2013-01-29 20:37:00,31.0,26.7,30.08,WNW,288,1.0,2.0,84,0.00,,,0.20,Wunderground v.1.13,2013-01-30 01:37:00,
2013-01-29 20:42:00,31.0,27.0,30.08,NW,305,2.0,3.0,85,0.00,,,0.20,Wunderground v.1.13,2013-01-30 01:42:00,
2013-01-29 20:47:00,31.0,27.6,30.08,West,277,2.0,2.0,87,0.00,,,0.20,Wunderground v.1.13,2013-01-30 01:47:00,
2013-01-29 20:52:00,31.0,27.9,30.07,West,277,1.0,1.0,88,0.00,,,0.20,Wunderground v.1.13,2013-01-30 01:52:00,
2013-01-29 20:57:00,31.0,28.1,30.07,West,277,1.0,1.0,89,0.00,,,0.21,Wunderground v.1.13,2013-01-30 01:57:00,
2013-01-29 21:02:00,31.0,28.4,30.07,West,277,1.0,1.0,90,0.00,,,0.21,Wunderground v.1.13,2013-01-30 02:02:00,
2013-01-29 21:07:00,31.0,28.4,30.07,WSW,243,1.0,1.0,90,0.00,,,0.21,Wunderground v.1.13,2013-01-30 02:07:00,
2013-01-29 21:12:00,31.0,28.7,30.07,WSW,243,0.0,0.0,91,0.00,,,0.21,Wunderground v.1.13,2013-01-30 02:12:00,
2013-01-29 21:17:00,31.0,28.9,30.07,WSW,243,0.0,0.0,92,0.00,,,0.21,Wunderground v.1.13,2013-01-30 02:17:00,
2013-01-29 21:22:00,31.0,28.9,30.07,WSW,243,0.0,0.0,92,0.00,,,0.21,Wunderground v.1.13,2013-01-30 02:22:00,
2013-01-29 21:27:00,31.0,29.2,30.07,WSW,243,0.0,0.0,93,0.00,,,0.21,Wunderground v.1.13,2013-01-30 02:27:00,
2013-01-29 21:32:00,31.0,29.2,30.07,WSW,243,0.0,0.0,93,0.00,,,0.21,Wunderground v.1.13,2013-01-30 02:32:00,
2013-01-29 21:37:00,31.0,29.5,30.07,WSW,258,1.0,2.0,94,0.00,,,0.21,Wunderground v.1.13,2013-01-30 02:37:00,
2013-01-29 21:42:00,31.0,29.5,30.07,NW,308,2.0,2.0,94,0.00,,,0.21,Wunderground v.1.13,2013-01-30 02:42:00,
2013-01-29 21:47:00,31.0,29.7,30.07,NW,308,1.0,1.0,95,0.00,,,0.21,Wunderground v.1.13,2013-01-30 02:47:00,
2013-01-29 21:52:00,31.2,29.9,30.07,NW,308,0.0,0.0,95,0.00,,,0.21,Wunderground v.1.13,2013-01-30 02:52:00,
2013-01-29 21:57:00,31.0,30.0,30.07,NW,308,0.0,0.0,96,0.00,,,0.21,Wunderground v.1.13,2013-01-30 02:57:00,
2013-01-29 22:03:00,31.0,30.0,30.07,NW,308,0.0,0.0,96,0.00,,,0.21,Wunderground v.1.13,2013-01-30 03:03:00,
2013-01-29 22:12:00,31.0,30.0,30.06,WNW,296,2.0,2.0,96,0.00,,,0.21,Wunderground v.1.13,2013-01-30 03:12:00,
2013-01-29 22:17:00,31.0,30.2,30.06,WNW,296,1.0,2.0,97,0.00,,,0.21,Wunderground v.1.13,2013-01-30 03:17:00,
2013-01-29 22:22:00,31.0,30.2,30.06,WNW,296,0.0,0.0,97,0.00,,,0.21,Wunderground v.1.13,2013-01-30 03:22:00,
2013-01-29 22:27:00,31.0,30.2,30.06,WNW,296,1.0,1.0,97,0.00,,,0.21,Wunderground v.1.13,2013-01-30 03:27:00,
2013-01-29 22:32:00,31.2,30.4,30.06,WNW,296,1.0,2.0,97,0.00,,,0.21,Wunderground v.1.13,2013-01-30 03:32:00,
2013-01-29 22:37:00,31.2,30.7,30.04,WNW,296,2.0,2.0,98,0.00,,,0.21,Wunderground v.1.13,2013-01-30 03:37:00,
2013-01-29 22:42:00,31.2,30.7,30.04,WNW,296,1.0,1.0,98,0.00,,,0.21,Wunderground v.1.13,2013-01-30 03:42:00,
2013-01-29 22:47:00,31.0,30.5,30.04,WNW,296,1.0,1.0,98,0.00,,,0.21,Wunderground v.1.13,2013-01-30 03:47:00,
2013-01-29 22:52:00,31.0,30.5,30.05,West,261,1.0,2.0,98,0.00,,,0.21,Wunderground v.1.13,2013-01-30 03:52:00,
2013-01-29 22:57:00,31.0,30.5,30.05,West,277,1.0,1.0,98,0.00,,,0.21,Wunderground v.1.13,2013-01-30 03:57:00,
2013-01-29 23:03:00,31.2,30.7,30.05,WNW,295,1.0,1.0,98,0.00,,,0.21,Wunderground v.1.13,2013-01-30 04:03:00,
2013-01-29 23:07:00,31.2,30.7,30.05,WNW,295,1.0,1.0,98,0.00,,,0.21,Wunderground v.1.13,2013-01-30 04:07:00,
2013-01-29 23:12:00,31.2,30.7,30.05,WNW,295,1.0,1.0,98,0.00,,,0.21,Wunderground v.1.13,2013-01-30 04:12:00,
2013-01-29 23:22:00,31.2,31.0,30.05,WNW,295,1.0,1.0,99,0.00,,,0.21,Wunderground v.1.13,2013-01-30 04:22:00,
2013-01-29 23:27:00,31.2,31.0,30.05,WNW,295,1.0,1.0,99,0.00,,,0.21,Wunderground v.1.13,2013-01-30 04:27:00,
2013-01-29 23:32:00,31.2,31.0,30.05,WNW,295,1.0,1.0,99,0.00,,,0.21,Wunderground v.1.13,2013-01-30 04:32:00,
2013-01-29 23:37:00,31.2,31.0,30.05,WNW,295,1.0,1.0,99,0.00,,,0.21,Wunderground v.1.13,2013-01-30 04:37:00,
2013-01-29 23:42:00,31.2,31.0,30.05,WNW,295,0.0,0.0,99,0.00,,,0.21,Wunderground v.1.13,2013-01-30 04:42:00,
2013-01-29 23:47:00,31.2,31.0,30.05,WNW,295,0.0,0.0,99,0.00,,,0.21,Wunderground v.1.13,2013-01-30 04:47:00,
2013-01-29 23:52:00,31.2,31.0,30.05,WNW,295,0.0,0.0,99,0.00,,,0.21,Wunderground v.1.13,2013-01-30 04:52:00,
2013-01-29 23:57:00,31.2,31.2,30.05,WNW,295,0.0,0.0,100,0.00,,,0.21,Wunderground v.1.13,2013-01-30 04:57:00,